Time;durP1;ratioP1;P1;durP2;ratioP2;P2;SDS_P1;SDS_P2;PMS_P1;PMS_P2;Temp;Humidity;BMP_temperature;BMP_pressure;BME280_temperature;BME280_humidity;BME280_pressure;Samples;Min_cycle;Max_cycle;Signal;HPM_P1;HPM_P2
2021/08/05 00:02:00;;;;;;;;;;;14.90;92.70;;;;;;4993334;28;19925;-69
2021/08/05 00:04:25;;;;;;;;;;;14.80;92.70;;;;;;5008129;28;20355;-69
2021/08/05 00:06:51;;;;;;;;;;;14.80;93.00;;;;;;4991843;28;19925;-69
2021/08/05 00:09:17;;;;;;;;;;;14.80;92.80;;;;;;4992824;28;20271;-69
2021/08/05 00:11:42;;;;;;;;;;;14.90;92.80;;;;;;4991802;28;19918;-69
2021/08/05 00:14:08;;;;;;;;;;;14.90;92.80;;;;;;4991946;28;19918;-69
2021/08/05 00:16:34;;;;;;;;;;;14.90;92.90;;;;;;4991493;28;19926;-69
2021/08/05 00:18:59;;;;;;;;;;;14.90;92.90;;;;;;4992826;28;19918;-69
2021/08/05 00:21:25;;;;;;;;;;;14.90;92.90;;;;;;4991841;28;19917;-69
2021/08/05 00:23:50;;;;;;;;;;;14.90;92.90;;;;;;4992471;28;19922;-69
2021/08/05 00:26:16;;;;;;;;;;;15.00;92.90;;;;;;4992863;28;19928;-69
2021/08/05 00:28:42;;;;;;;;;;;14.90;92.90;;;;;;4992252;28;19956;-69
2021/08/05 00:31:08;;;;;;;;;;;14.90;92.90;;;;;;4992977;28;20355;-69
2021/08/05 00:33:34;;;;;;;;;;;14.90;92.90;;;;;;4991544;28;19968;-69
2021/08/05 00:36:00;;;;;;;;;;;15.00;93.00;;;;;;5007408;28;19942;-69
2021/08/05 00:38:26;;;;;;;;;;;15.00;92.90;;;;;;5007501;28;19924;-69
2021/08/05 00:40:52;;;;;;;;;;;14.90;92.80;;;;;;4991312;28;19918;-69
2021/08/05 00:43:19;;;;;;;;;;;14.90;92.90;;;;;;4990092;28;19964;-69
2021/08/05 00:45:44;;;;;;;;;;;14.90;92.90;;;;;;4992769;28;19996;-69
2021/08/05 00:48:10;;;;;;;;;;;14.90;93.00;;;;;;4990790;28;20375;-69
2021/08/05 00:50:35;;;;;;;;;;;14.80;93.00;;;;;;4991244;28;19922;-69
2021/08/05 00:53:01;;;;;;;;;;;14.80;93.00;;;;;;5004642;23;19925;-63
2021/08/05 00:55:27;;;;;;;;;;;14.90;93.00;;;;;;4990847;28;20333;-63
2021/08/05 00:57:53;;;;;;;;;;;14.80;93.00;;;;;;5007684;28;20004;-63
2021/08/05 01:00:19;;;;;;;;;;;14.80;93.00;;;;;;4992531;28;19913;-62
2021/08/05 01:02:51;;;;;;;;;;;14.80;93.10;;;;;;4990966;28;19918;-63
2021/08/05 01:05:18;;;;;;;;;;;14.80;93.10;;;;;;4992465;28;19922;-63
2021/08/05 01:07:48;;;;;;;;;;;14.80;93.10;;;;;;4990076;28;19921;-63
2021/08/05 01:10:20;;;;;;;;;;;14.80;93.10;;;;;;4991219;28;19992;-63
2021/08/05 01:13:05;;;;;;;;;;;14.80;93.10;;;;;;4991087;28;19980;-62
2021/08/05 01:15:31;;;;;;;;;;;14.80;93.20;;;;;;4990810;28;19922;-62
2021/08/05 01:18:01;;;;;;;;;;;14.80;93.20;;;;;;4990866;28;19914;-63
2021/08/05 01:20:27;;;;;;;;;;;14.80;93.20;;;;;;4990667;28;20358;-63
2021/08/05 01:23:02;;;;;;;;;;;14.80;93.20;;;;;;4991010;28;20009;-63
2021/08/05 01:25:30;;;;;;;;;;;14.80;93.20;;;;;;4991864;28;19960;-61
2021/08/05 01:27:58;;;;;;;;;;;14.80;93.20;;;;;;4990771;28;20374;-63
2021/08/05 01:30:25;;;;;;;;;;;14.80;93.20;;;;;;4990593;28;19918;-63
2021/08/05 01:32:51;;;;;;;;;;;14.80;93.20;;;;;;4990979;28;19929;-63
2021/08/05 01:35:17;;;;;;;;;;;14.80;93.20;;;;;;4990828;28;20306;-63
2021/08/05 01:37:43;;;;;;;;;;;14.80;93.30;;;;;;4990159;28;20329;-63
2021/08/05 01:40:09;;;;;;;;;;;14.80;93.30;;;;;;4990848;28;19918;-63
2021/08/05 01:42:36;;;;;;;;;;;14.70;93.20;;;;;;4992058;28;20037;-62
2021/08/05 01:45:02;;;;;;;;;;;14.80;93.30;;;;;;4990148;28;20381;-63
2021/08/05 01:47:29;;;;;;;;;;;14.70;93.30;;;;;;4990596;28;19914;-63
2021/08/05 01:49:55;;;;;;;;;;;14.80;93.30;;;;;;4990276;28;19941;-63
2021/08/05 01:52:21;;;;;;;;;;;14.80;93.40;;;;;;4990526;28;19980;-67
2021/08/05 01:54:47;;;;;;;;;;;14.70;93.30;;;;;;4993559;28;19914;-67
2021/08/05 01:57:13;;;;;;;;;;;14.70;93.30;;;;;;4993901;28;19968;-66
2021/08/05 01:59:39;;;;;;;;;;;14.70;93.40;;;;;;4994740;28;19979;-67
2021/08/05 02:02:08;;;;;;;;;;;14.70;93.40;;;;;;4995741;28;20322;-67
2021/08/05 02:04:40;;;;;;;;;;;14.70;93.30;;;;;;4995376;28;19972;-66
2021/08/05 02:07:09;;;;;;;;;;;14.70;93.30;;;;;;4995417;28;19918;-67
2021/08/05 02:09:44;;;;;;;;;;;14.80;93.40;;;;;;4994012;28;19918;-66
2021/08/05 02:12:10;;;;;;;;;;;14.70;93.40;;;;;;4995526;28;20020;-66
2021/08/05 02:14:36;;;;;;;;;;;14.70;93.40;;;;;;4995450;28;20008;-67
2021/08/05 02:17:04;;;;;;;;;;;14.70;93.40;;;;;;4995042;28;19977;-67
2021/08/05 02:19:30;;;;;;;;;;;14.70;93.50;;;;;;4994317;28;19967;-66
2021/08/05 02:21:57;;;;;;;;;;;14.70;93.40;;;;;;4993623;28;20009;-67
2021/08/05 02:24:27;;;;;;;;;;;14.70;93.50;;;;;;4995356;28;20414;-66
2021/08/05 02:26:53;;;;;;;;;;;14.70;93.40;;;;;;4993455;28;20381;-65
2021/08/05 02:29:19;;;;;;;;;;;14.70;93.40;;;;;;4995300;28;20290;-66
2021/08/05 02:31:45;;;;;;;;;;;14.70;93.40;;;;;;4995320;28;19918;-67
2021/08/05 02:34:11;;;;;;;;;;;14.70;93.40;;;;;;4993647;28;19922;-67
2021/08/05 02:36:37;;;;;;;;;;;14.70;93.40;;;;;;4995090;28;19917;-67
2021/08/05 02:39:03;;;;;;;;;;;14.70;93.40;;;;;;4995217;28;20382;-67
2021/08/05 02:41:29;;;;;;;;;;;14.70;93.40;;;;;;4993439;28;19914;-66
2021/08/05 02:43:55;;;;;;;;;;;14.60;93.40;;;;;;4993614;28;19917;-66
2021/08/05 02:46:21;;;;;;;;;;;14.60;93.40;;;;;;4994948;28;20381;-67
2021/08/05 02:48:47;;;;;;;;;;;14.60;93.40;;;;;;4993160;28;19921;-66
2021/08/05 02:51:14;;;;;;;;;;;14.60;93.40;;;;;;4993575;28;19918;-67
2021/08/05 02:53:40;;;;;;;;;;;14.60;93.50;;;;;;4994335;28;19922;-67
2021/08/05 02:56:07;;;;;;;;;;;14.60;93.50;;;;;;4993421;28;19921;-67
2021/08/05 02:58:33;;;;;;;;;;;14.60;93.50;;;;;;4994682;28;20394;-66
2021/08/05 03:00:59;;;;;;;;;;;14.50;93.50;;;;;;4993174;28;19933;-67
2021/08/05 03:03:24;;;;;;;;;;;14.60;93.50;;;;;;4993525;28;19918;-67
2021/08/05 03:05:51;;;;;;;;;;;14.50;93.50;;;;;;4992477;28;19933;-67
2021/08/05 03:08:16;;;;;;;;;;;14.50;93.50;;;;;;4992520;28;20015;-67
2021/08/05 03:10:42;;;;;;;;;;;14.50;93.50;;;;;;4993251;28;19957;-67
2021/08/05 03:13:08;;;;;;;;;;;14.50;93.50;;;;;;4993928;28;20393;-67
2021/08/05 03:15:33;;;;;;;;;;;14.50;93.40;;;;;;4993157;28;19918;-67
2021/08/05 03:18:01;;;;;;;;;;;14.50;93.50;;;;;;4994118;28;19921;-67
2021/08/05 03:20:26;;;;;;;;;;;14.40;93.50;;;;;;4994067;28;20366;-67
2021/08/05 03:22:52;;;;;;;;;;;14.50;93.50;;;;;;4994386;28;19924;-67
2021/08/05 03:25:17;;;;;;;;;;;14.40;93.50;;;;;;4994362;28;19922;-66
2021/08/05 03:27:43;;;;;;;;;;;14.40;93.50;;;;;;4993647;28;19924;-66
2021/08/05 03:30:09;;;;;;;;;;;14.40;93.50;;;;;;4993022;28;20297;-66
2021/08/05 03:32:35;;;;;;;;;;;14.40;93.50;;;;;;4992284;28;19925;-66
2021/08/05 03:35:00;;;;;;;;;;;14.40;93.50;;;;;;4994228;28;19922;-66
2021/08/05 03:37:26;;;;;;;;;;;14.40;93.60;;;;;;4993790;28;20358;-66
2021/08/05 03:39:52;;;;;;;;;;;14.40;93.60;;;;;;4993669;28;19926;-66
2021/08/05 03:42:18;;;;;;;;;;;14.40;93.60;;;;;;4992638;28;20437;-66
2021/08/05 03:44:43;;;;;;;;;;;14.40;93.70;;;;;;4993483;28;19918;-66
2021/08/05 03:47:09;;;;;;;;;;;14.40;93.70;;;;;;4992379;28;20000;-66
2021/08/05 03:49:34;;;;;;;;;;;14.40;93.70;;;;;;4992669;28;20041;-66
2021/08/05 03:52:00;;;;;;;;;;;14.40;93.60;;;;;;4993368;28;19922;-66
2021/08/05 03:54:25;;;;;;;;;;;14.40;93.70;;;;;;4993841;28;20274;-66
2021/08/05 03:56:51;;;;;;;;;;;14.40;93.70;;;;;;4993511;28;20368;-66
2021/08/05 03:59:16;;;;;;;;;;;14.40;93.70;;;;;;4975797;28;20074;-66
2021/08/05 04:01:42;;;;;;;;;;;14.40;93.70;;;;;;4993561;28;20464;-66
2021/08/05 04:04:07;;;;;;;;;;;14.50;93.80;;;;;;4993161;28;19960;-64
2021/08/05 04:06:33;;;;;;;;;;;14.50;93.80;;;;;;4997000;28;19921;-66
2021/08/05 04:08:58;;;;;;;;;;;14.50;93.70;;;;;;5011617;28;19913;-66
2021/08/05 04:11:24;;;;;;;;;;;14.50;93.70;;;;;;5012631;28;19940;-66
2021/08/05 04:13:50;;;;;;;;;;;14.50;93.70;;;;;;5011706;28;20324;-66
2021/08/05 04:16:15;;;;;;;;;;;14.50;93.70;;;;;;5012846;28;19921;-66
2021/08/05 04:18:41;;;;;;;;;;;14.60;93.70;;;;;;5012352;28;19920;-66
2021/08/05 04:21:06;;;;;;;;;;;14.60;93.70;;;;;;5011645;28;19919;-66
2021/08/05 04:23:32;;;;;;;;;;;14.60;93.70;;;;;;5011564;28;19924;-65
2021/08/05 04:25:58;;;;;;;;;;;14.60;93.70;;;;;;5012269;28;19929;-65
2021/08/05 04:28:23;;;;;;;;;;;14.60;93.80;;;;;;5012394;28;19913;-65
2021/08/05 04:30:50;;;;;;;;;;;14.60;93.80;;;;;;5012676;28;19925;-65
2021/08/05 04:33:15;;;;;;;;;;;14.60;93.70;;;;;;5010770;28;19921;-65
2021/08/05 04:35:41;;;;;;;;;;;14.70;93.80;;;;;;5011240;28;19981;-65
2021/08/05 04:38:07;;;;;;;;;;;14.70;93.80;;;;;;5011923;28;20435;-65
2021/08/05 04:40:33;;;;;;;;;;;14.70;93.80;;;;;;5011327;28;20285;-66
2021/08/05 04:42:59;;;;;;;;;;;14.70;93.80;;;;;;5000811;28;19941;-65
2021/08/05 04:45:25;;;;;;;;;;;14.70;93.80;;;;;;5008081;28;20491;-67
2021/08/05 04:48:01;;;;;;;;;;;14.80;93.80;;;;;;4999910;28;19957;-67
2021/08/05 04:50:27;;;;;;;;;;;14.80;93.80;;;;;;4992392;28;19917;-66
2021/08/05 04:52:53;;;;;;;;;;;14.80;93.80;;;;;;4992396;28;20362;-66
2021/08/05 04:55:19;;;;;;;;;;;14.80;93.70;;;;;;4997500;28;19992;-66
2021/08/05 04:57:45;;;;;;;;;;;14.80;93.70;;;;;;5005610;28;20515;-66
2021/08/05 05:00:11;;;;;;;;;;;14.80;93.70;;;;;;4992484;28;19922;-66
2021/08/05 05:02:36;;;;;;;;;;;14.90;93.70;;;;;;4990618;28;19972;-66
2021/08/05 05:05:02;;;;;;;;;;;14.90;93.80;;;;;;4992413;28;19953;-66
2021/08/05 05:07:27;;;;;;;;;;;14.90;93.70;;;;;;4991415;28;19953;-67
2021/08/05 05:09:53;;;;;;;;;;;14.90;93.80;;;;;;4991936;28;19918;-67
2021/08/05 05:12:19;;;;;;;;;;;14.90;93.70;;;;;;4992569;28;19921;-67
2021/08/05 05:14:44;;;;;;;;;;;15.00;93.80;;;;;;4991049;28;20340;-66
2021/08/05 05:17:10;;;;;;;;;;;15.00;93.80;;;;;;4990393;28;20428;-67
2021/08/05 05:19:36;;;;;;;;;;;15.00;93.80;;;;;;4992381;28;19917;-67
2021/08/05 05:22:01;;;;;;;;;;;15.10;93.80;;;;;;4992247;28;19917;-66
2021/08/05 05:24:27;;;;;;;;;;;15.10;93.80;;;;;;4990370;28;19917;-67
2021/08/05 05:26:53;;;;;;;;;;;15.10;93.80;;;;;;4992058;28;19926;-66
2021/08/05 05:29:19;;;;;;;;;;;15.20;93.80;;;;;;4991547;28;19925;-65
2021/08/05 05:31:44;;;;;;;;;;;15.20;93.70;;;;;;4992234;28;19918;-66
2021/08/05 05:34:10;;;;;;;;;;;15.20;93.70;;;;;;4991993;28;19922;-66
2021/08/05 05:36:35;;;;;;;;;;;15.30;93.70;;;;;;4990329;28;19918;-67
2021/08/05 05:39:01;;;;;;;;;;;15.30;93.70;;;;;;4992037;28;20016;-67
2021/08/05 05:41:26;;;;;;;;;;;15.30;93.70;;;;;;4974521;28;19952;-67
2021/08/05 05:43:52;;;;;;;;;;;15.40;93.80;;;;;;4990234;28;19918;-66
2021/08/05 05:46:17;;;;;;;;;;;15.50;93.80;;;;;;4990610;28;19926;-66
2021/08/05 05:48:43;;;;;;;;;;;15.50;93.70;;;;;;4991850;28;19921;-66
2021/08/05 05:51:09;;;;;;;;;;;15.50;93.60;;;;;;4990296;28;19922;-66
2021/08/05 05:53:34;;;;;;;;;;;15.50;93.60;;;;;;4991747;28;19926;-67
2021/08/05 05:56:00;;;;;;;;;;;15.60;93.70;;;;;;4991458;28;20068;-67
2021/08/05 05:58:25;;;;;;;;;;;15.60;93.70;;;;;;4991693;28;19926;-66
2021/08/05 06:00:51;;;;;;;;;;;15.70;93.80;;;;;;4974334;28;19917;-67
2021/08/05 06:03:17;;;;;;;;;;;15.80;93.80;;;;;;4989922;28;20314;-66
2021/08/05 06:05:43;;;;;;;;;;;15.90;93.80;;;;;;4991745;28;19921;-67
2021/08/05 06:08:09;;;;;;;;;;;16.00;93.80;;;;;;4991047;28;20052;-67
2021/08/05 06:10:34;;;;;;;;;;;16.00;93.70;;;;;;4991328;28;19925;-67
2021/08/05 06:13:00;;;;;;;;;;;16.10;93.70;;;;;;4974091;28;20160;-67
2021/08/05 06:15:25;;;;;;;;;;;16.20;93.60;;;;;;4989881;28;20371;-67
2021/08/05 06:17:51;;;;;;;;;;;16.30;93.60;;;;;;4990108;28;19914;-67
2021/08/05 06:20:18;;;;;;;;;;;16.30;93.50;;;;;;4991384;28;20263;-67
2021/08/05 06:22:45;;;;;;;;;;;16.40;93.50;;;;;;4990821;28;20001;-67
2021/08/05 06:25:11;;;;;;;;;;;16.50;93.50;;;;;;4991478;28;20378;-67
2021/08/05 06:27:37;;;;;;;;;;;16.60;93.50;;;;;;4989332;28;19913;-67
2021/08/05 06:30:03;;;;;;;;;;;16.70;93.50;;;;;;4990123;28;19949;-66
2021/08/05 06:32:29;;;;;;;;;;;16.80;93.50;;;;;;4990264;28;20000;-67
2021/08/05 06:34:54;;;;;;;;;;;16.90;93.40;;;;;;4990906;28;20005;-67
2021/08/05 06:37:20;;;;;;;;;;;17.00;93.40;;;;;;4990674;28;19928;-67
2021/08/05 06:39:45;;;;;;;;;;;17.20;93.40;;;;;;4991554;28;20349;-67
2021/08/05 06:42:11;;;;;;;;;;;17.30;93.40;;;;;;4993947;28;20408;-65
2021/08/05 06:44:37;;;;;;;;;;;17.40;93.20;;;;;;4993549;28;20389;-67
2021/08/05 06:47:03;;;;;;;;;;;17.50;93.10;;;;;;4994527;28;19921;-67
2021/08/05 06:49:29;;;;;;;;;;;17.60;92.90;;;;;;4994420;28;20008;-69
2021/08/05 06:51:55;;;;;;;;;;;17.70;92.60;;;;;;4993268;28;20450;-68
2021/08/05 06:54:20;;;;;;;;;;;17.80;92.80;;;;;;4994799;28;19957;-64
2021/08/05 06:56:46;;;;;;;;;;;17.90;92.50;;;;;;4994340;28;20393;-64
2021/08/05 06:59:13;;;;;;;;;;;18.00;92.50;;;;;;4994463;28;19917;-63
2021/08/05 07:01:38;;;;;;;;;;;18.30;92.60;;;;;;4992869;28;20413;-63
2021/08/05 07:04:04;;;;;;;;;;;18.40;92.40;;;;;;4994176;28;20012;-64
2021/08/05 07:06:30;;;;;;;;;;;18.50;92.10;;;;;;4994447;28;20386;-65
2021/08/05 07:08:55;;;;;;;;;;;18.60;91.70;;;;;;4992787;28;20037;-63
2021/08/05 07:11:21;;;;;;;;;;;18.70;91.30;;;;;;4994378;28;19918;-63
2021/08/05 07:13:46;;;;;;;;;;;18.70;91.10;;;;;;4992817;28;19925;-62
2021/08/05 07:16:13;;;;;;;;;;;18.80;90.90;;;;;;4992663;28;20433;-63
2021/08/05 07:18:39;;;;;;;;;;;18.80;90.20;;;;;;4992673;28;20037;-62
2021/08/05 07:21:04;;;;;;;;;;;18.80;90.20;;;;;;4992501;28;20017;-63
2021/08/05 07:23:30;;;;;;;;;;;18.90;90.40;;;;;;4994104;28;19918;-63
2021/08/05 07:25:56;;;;;;;;;;;19.10;90.20;;;;;;4994005;28;19929;-62
2021/08/05 07:28:22;;;;;;;;;;;19.30;90.00;;;;;;4993318;28;20343;-63
2021/08/05 07:30:47;;;;;;;;;;;19.60;90.10;;;;;;4994163;28;19940;-63
2021/08/05 07:33:13;;;;;;;;;;;19.90;89.20;;;;;;4993995;28;20271;-62
2021/08/05 07:35:39;;;;;;;;;;;20.20;89.10;;;;;;4993400;28;19918;-62
2021/08/05 07:38:04;;;;;;;;;;;20.40;88.40;;;;;;4992450;28;20408;-63
2021/08/05 07:40:30;;;;;;;;;;;20.60;87.40;;;;;;4992286;28;20370;-63
2021/08/05 07:42:55;;;;;;;;;;;20.60;85.80;;;;;;4993662;28;19918;-63
2021/08/05 07:45:21;;;;;;;;;;;20.60;85.00;;;;;;4993754;28;19922;-63
2021/08/05 07:47:46;;;;;;;;;;;20.60;84.70;;;;;;4992005;28;20358;-63
2021/08/05 07:50:14;;;;;;;;;;;20.60;84.70;;;;;;4992371;28;19926;-63
2021/08/05 07:52:40;;;;;;;;;;;20.40;83.30;;;;;;4991811;28;19918;-63
2021/08/05 07:55:06;;;;;;;;;;;20.30;83.30;;;;;;4993391;28;19918;-62
2021/08/05 07:57:32;;;;;;;;;;;20.30;83.20;;;;;;4993364;28;20313;-63
2021/08/05 07:59:59;;;;;;;;;;;20.30;84.50;;;;;;4993128;28;19965;-63
2021/08/05 08:02:26;;;;;;;;;;;20.70;84.50;;;;;;4993332;28;20416;-62
2021/08/05 08:04:52;;;;;;;;;;;21.80;88.00;;;;;;4992012;28;20386;-63
2021/08/05 08:07:18;;;;;;;;;;;23.20;89.10;;;;;;4991487;28;19925;-63
2021/08/05 08:09:43;;;;;;;;;;;25.20;89.40;;;;;;4993602;28;19918;-63
2021/08/05 08:12:09;;;;;;;;;;;27.40;85.60;;;;;;4992070;28;19918;-72
2021/08/05 08:14:34;;;;;;;;;;;28.70;78.90;;;;;;4992723;28;19918;-72
2021/08/05 08:17:00;;;;;;;;;;;29.20;72.40;;;;;;4992836;28;19961;-72
2021/08/05 08:19:26;;;;;;;;;;;28.90;67.60;;;;;;4992791;28;19980;-71
2021/08/05 08:21:52;;;;;;;;;;;28.10;65.10;;;;;;4991905;28;19918;-72
2021/08/05 08:24:19;;;;;;;;;;;27.30;64.20;;;;;;4992770;28;20405;-72
2021/08/05 08:26:44;;;;;;;;;;;26.50;63.50;;;;;;4990649;28;19922;-72
2021/08/05 08:29:10;;;;;;;;;;;25.60;62.00;;;;;;4991563;28;20103;-72
2021/08/05 08:31:35;;;;;;;;;;;24.70;61.70;;;;;;4992493;28;19925;-63
2021/08/05 08:34:01;;;;;;;;;;;23.90;62.80;;;;;;4992742;28;19922;-62
2021/08/05 08:36:26;;;;;;;;;;;23.40;63.90;;;;;;4991559;28;19926;-62
2021/08/05 08:38:52;;;;;;;;;;;23.30;65.50;;;;;;4992112;28;19945;-62
2021/08/05 08:41:18;;;;;;;;;;;23.60;66.70;;;;;;4991169;28;19924;-62
2021/08/05 08:43:44;;;;;;;;;;;24.30;66.90;;;;;;4992458;28;19918;-62
2021/08/05 08:46:11;;;;;;;;;;;25.40;67.20;;;;;;4991906;28;19929;-63
2021/08/05 08:48:39;;;;;;;;;;;25.60;63.00;;;;;;4992027;28;19976;-62
2021/08/05 08:51:04;;;;;;;;;;;25.20;61.00;;;;;;4991770;28;19964;-64
2021/08/05 08:53:33;;;;;;;;;;;24.60;60.00;;;;;;4992045;28;19926;-62
2021/08/05 08:55:59;;;;;;;;;;;24.00;60.10;;;;;;4974567;28;19922;-63
2021/08/05 08:58:25;;;;;;;;;;;23.50;60.80;;;;;;4990216;28;19961;-63
2021/08/05 09:00:50;;;;;;;;;;;23.20;61.70;;;;;;4992400;28;19918;-63
2021/08/05 09:03:17;;;;;;;;;;;23.40;64.00;;;;;;4989995;28;19918;-62
2021/08/05 09:05:44;;;;;;;;;;;23.90;65.40;;;;;;4990251;28;19922;-63
2021/08/05 09:08:10;;;;;;;;;;;24.80;65.40;;;;;;4991901;28;19972;-63
2021/08/05 09:10:36;;;;;;;;;;;25.50;64.20;;;;;;4990258;28;20342;-63
2021/08/05 09:13:02;;;;;;;;;;;25.80;62.60;;;;;;4991882;28;20009;-62
2021/08/05 09:15:47;;;;;;;;;;;26.00;61.30;;;;;;4990986;28;20020;-62
2021/08/05 09:18:31;;;;;;;;;;;26.20;61.00;;;;;;4991520;28;19918;-62
2021/08/05 09:21:10;;;;;;;;;;;26.90;61.50;;;;;;4991403;28;20393;-63
2021/08/05 09:23:46;;;;;;;;;;;27.80;60.90;;;;;;4991973;28;19918;-62
2021/08/05 09:26:21;;;;;;;;;;;28.60;58.50;;;;;;4991490;28;19960;-62
2021/08/05 09:28:58;;;;;;;;;;;28.90;56.40;;;;;;4991696;28;19917;-62
2021/08/05 09:31:24;;;;;;;;;;;29.10;55.10;;;;;;4991704;28;20390;-62
2021/08/05 09:33:50;;;;;;;;;;;29.80;55.50;;;;;;4991946;28;19992;-62
2021/08/05 09:36:23;;;;;;;;;;;30.50;54.60;;;;;;4990551;28;20374;-62
2021/08/05 09:38:48;;;;;;;;;;;30.50;52.60;;;;;;4991037;28;19918;-63
2021/08/05 09:41:14;;;;;;;;;;;30.50;51.30;;;;;;4991811;28;20267;-62
2021/08/05 09:43:39;;;;;;;;;;;31.50;52.60;;;;;;4991337;28;19925;-63
2021/08/05 09:46:05;;;;;;;;;;;32.40;50.60;;;;;;4990449;28;19922;-62
2021/08/05 09:48:36;;;;;;;;;;;32.20;47.70;;;;;;4990412;28;19922;-62
2021/08/05 09:51:16;;;;;;;;;;;31.70;46.70;;;;;;4991485;28;19960;-62
2021/08/05 09:53:52;;;;;;;;;;;31.70;47.00;;;;;;4991429;28;20365;-62
2021/08/05 09:56:17;;;;;;;;;;;33.00;48.60;;;;;;4991791;28;19925;-62
2021/08/05 09:58:43;;;;;;;;;;;34.40;46.00;;;;;;4991464;28;19918;-62
2021/08/05 10:01:08;;;;;;;;;;;35.80;43.40;;;;;;4990093;28;19918;-63
2021/08/05 10:03:34;;;;;;;;;;;37.50;42.70;;;;;;4990402;28;19941;-63
2021/08/05 10:06:05;;;;;;;;;;;39.10;41.80;;;;;;4991731;28;20396;-63
2021/08/05 10:08:35;;;;;;;;;;;40.90;40.60;;;;;;4990889;28;19918;-63
2021/08/05 10:11:01;;;;;;;;;;;42.60;39.30;;;;;;4991597;28;19957;-65
2021/08/05 10:13:30;;;;;;;;;;;44.10;37.80;;;;;;4991440;28;19965;-63
2021/08/05 10:15:56;;;;;;;;;;;45.20;35.50;;;;;;4993119;28;19918;-63
2021/08/05 10:18:26;;;;;;;;;;;45.70;32.70;;;;;;4995193;28;19917;-63
2021/08/05 10:20:52;;;;;;;;;;;45.50;31.20;;;;;;4995040;28;19925;-64
2021/08/05 10:23:17;;;;;;;;;;;45.50;30.00;;;;;;4977752;28;19918;-63
2021/08/05 10:25:44;;;;;;;;;;;45.10;29.40;;;;;;4993457;28;19944;-62
2021/08/05 10:28:09;;;;;;;;;;;42.20;27.70;;;;;;4995031;28;19925;-62
2021/08/05 10:30:36;;;;;;;;;;;39.90;29.50;;;;;;4995123;28;19921;-63
2021/08/05 10:33:01;;;;;;;;;;;40.30;30.20;;;;;;4993362;28;19957;-62
2021/08/05 10:35:27;;;;;;;;;;;41.20;29.90;;;;;;4993761;28;20032;-63
2021/08/05 10:37:53;;;;;;;;;;;41.80;29.60;;;;;;4994761;28;19917;-63
2021/08/05 10:40:18;;;;;;;;;;;41.10;28.90;;;;;;4993419;28;19925;-62
2021/08/05 10:42:45;;;;;;;;;;;40.30;29.20;;;;;;4995035;28;19917;-61
2021/08/05 10:45:12;;;;;;;;;;;39.50;29.20;;;;;;4994434;28;19997;-63
2021/08/05 10:47:37;;;;;;;;;;;39.00;29.60;;;;;;4994725;28;19941;-73
2021/08/05 10:50:13;;;;;;;;;;;39.30;30.00;;;;;;4994904;28;20382;-73
2021/08/05 10:52:40;;;;;;;;;;;40.20;30.00;;;;;;4993283;28;19949;-73
2021/08/05 10:55:20;;;;;;;;;;;41.60;29.50;;;;;;4977176;28;19917;-74
2021/08/05 10:57:46;;;;;;;;;;;43.10;29.50;;;;;;4994045;28;19925;-74
2021/08/05 11:00:14;;;;;;;;;;;44.00;28.50;;;;;;4994659;28;20013;-73
2021/08/05 11:02:42;;;;;;;;;;;44.50;27.90;;;;;;4994301;28;19917;-72
2021/08/05 11:05:08;;;;;;;;;;;45.20;27.40;;;;;;4994411;28;19918;-73
2021/08/05 11:07:34;;;;;;;;;;;45.30;26.80;;;;;;4994376;28;19913;-73
2021/08/05 11:10:16;;;;;;;;;;;44.60;26.30;;;;;;4994182;28;20362;-73
2021/08/05 11:12:57;;;;;;;;;;;44.90;26.50;;;;;;4993193;28;19948;-74
2021/08/05 11:15:26;;;;;;;;;;;45.70;26.30;;;;;;4994245;28;19924;-73
2021/08/05 11:18:10;;;;;;;;;;;46.10;26.00;;;;;;4992774;28;19980;-73
2021/08/05 11:20:37;;;;;;;;;;;46.90;26.10;;;;;;4994091;28;19917;-74
2021/08/05 11:23:03;;;;;;;;;;;48.00;25.80;;;;;;4993673;28;19913;-73
2021/08/05 11:25:48;;;;;;;;;;;48.50;24.50;;;;;;4993825;28;19929;-73
2021/08/05 11:28:20;;;;;;;;;;;48.00;23.90;;;;;;4992097;28;20005;-73
2021/08/05 11:30:47;;;;;;;;;;;47.10;24.10;;;;;;4993860;28;19925;-73
2021/08/05 11:33:32;;;;;;;;;;;44.40;23.80;;;;;;4994027;28;19914;-73
2021/08/05 11:36:18;;;;;;;;;;;41.10;24.40;;;;;;4993864;28;19972;-73
2021/08/05 11:38:56;;;;;;;;;;;37.80;25.60;;;;;;4993669;28;19917;-73
2021/08/05 11:41:37;;;;;;;;;;;36.30;28.10;;;;;;4993732;28;19961;-72
2021/08/05 11:44:18;;;;;;;;;;;35.20;27.60;;;;;;4993428;28;20286;-72
2021/08/05 11:46:44;;;;;;;;;;;34.50;29.50;;;;;;4993622;28;19922;-72
2021/08/05 11:49:28;;;;;;;;;;;33.70;29.10;;;;;;4992476;28;19933;-72
2021/08/05 11:51:54;;;;;;;;;;;32.10;29.60;;;;;;4993386;28;19925;-72
2021/08/05 11:54:20;;;;;;;;;;;30.10;31.00;;;;;;4993543;28;19973;-72
2021/08/05 11:57:21;;;;;;;;;;;28.90;32.40;;;;;;4991859;28;20354;-71
2021/08/05 11:59:49;;;;;;;;;;;28.00;33.70;;;;;;4953985;28;19918;-73
2021/08/05 12:02:17;;;;;;;;;;;27.20;35.20;;;;;;4989153;28;19968;-73
2021/08/05 12:04:43;;;;;;;;;;;26.80;36.10;;;;;;4992096;28;19918;-73
2021/08/05 12:07:15;;;;;;;;;;;26.30;36.90;;;;;;4992647;28;19921;-73
2021/08/05 12:09:41;;;;;;;;;;;26.00;37.70;;;;;;4993592;28;19918;-73
2021/08/05 12:12:06;;;;;;;;;;;25.70;38.50;;;;;;4993028;28;19914;-71
2021/08/05 12:14:32;;;;;;;;;;;25.50;39.70;;;;;;4993277;28;19933;-72
2021/08/05 12:16:57;;;;;;;;;;;25.30;40.60;;;;;;4992927;28;20005;-73
2021/08/05 12:19:23;;;;;;;;;;;25.10;42.10;;;;;;4975424;28;20305;-72
2021/08/05 12:21:49;;;;;;;;;;;24.90;43.30;;;;;;4991953;28;19964;-72
2021/08/05 12:24:14;;;;;;;;;;;24.80;44.50;;;;;;4992667;28;19917;-68
2021/08/05 12:26:40;;;;;;;;;;;24.60;45.70;;;;;;4992706;28;19925;-71
2021/08/05 12:29:11;;;;;;;;;;;24.50;46.70;;;;;;4992980;28;19918;-71
2021/08/05 12:31:37;;;;;;;;;;;24.40;47.90;;;;;;4991471;28;19918;-71
2021/08/05 12:34:03;;;;;;;;;;;24.30;49.10;;;;;;4991689;28;20301;-71
2021/08/05 12:36:28;;;;;;;;;;;24.30;50.20;;;;;;4991696;28;20414;-73
2021/08/05 12:39:31;;;;;;;;;;;24.50;51.30;;;;;;4992221;28;19918;-61
2021/08/05 12:41:50;;;;;;;;;;;24.80;52.20;;;;;;4991070;28;20005;-61
2021/08/05 12:44:17;;;;;;;;;;;25.20;52.90;;;;;;4992570;28;19972;-61
2021/08/05 12:46:44;;;;;;;;;;;25.60;53.50;;;;;;4991124;28;19922;-61
2021/08/05 12:49:10;;;;;;;;;;;25.80;53.70;;;;;;4992354;28;19918;-61
2021/08/05 12:51:36;;;;;;;;;;;26.00;53.80;;;;;;4992213;28;19925;-61
2021/08/05 12:54:11;;;;;;;;;;;26.10;54.10;;;;;;4992442;28;19926;-63
2021/08/05 12:56:40;;;;;;;;;;;26.00;54.30;;;;;;4992513;28;19918;-71
2021/08/05 12:59:06;;;;;;;;;;;25.90;54.70;;;;;;4990758;28;19997;-71
2021/08/05 13:01:32;;;;;;;;;;;25.80;55.10;;;;;;5010055;28;20005;-71
2021/08/05 13:03:59;;;;;;;;;;;25.70;55.60;;;;;;5011557;28;20346;-71
2021/08/05 13:06:45;;;;;;;;;;;25.50;55.70;;;;;;5010898;28;20012;-71
2021/08/05 13:09:12;;;;;;;;;;;25.10;55.90;;;;;;5009512;28;21279;-71
2021/08/05 13:11:39;;;;;;;;;;;24.70;56.80;;;;;;5009612;28;20411;-72
2021/08/05 13:14:05;;;;;;;;;;;24.40;57.60;;;;;;5011374;28;19918;-72
2021/08/05 13:16:38;;;;;;;;;;;24.20;58.40;;;;;;5010891;28;20436;-71
2021/08/05 13:19:03;;;;;;;;;;;24.00;59.20;;;;;;5011332;28;19923;-72
2021/08/05 13:21:30;;;;;;;;;;;23.80;59.90;;;;;;4998435;28;20000;-72
2021/08/05 13:24:09;;;;;;;;;;;23.70;60.70;;;;;;4998677;28;19929;-70
2021/08/05 13:26:35;;;;;;;;;;;23.50;61.10;;;;;;4992193;28;19969;-70
2021/08/05 13:29:01;;;;;;;;;;;23.40;61.70;;;;;;4991526;28;19953;-69
2021/08/05 13:31:27;;;;;;;;;;;23.20;62.30;;;;;;4990895;28;19921;-71
2021/08/05 13:34:09;;;;;;;;;;;23.10;63.10;;;;;;4990680;28;20267;-72
2021/08/05 13:36:36;;;;;;;;;;;23.00;63.70;;;;;;4991700;28;20334;-70
2021/08/05 13:39:01;;;;;;;;;;;22.90;64.50;;;;;;4990858;28;20313;-70
2021/08/05 13:41:27;;;;;;;;;;;22.80;64.80;;;;;;4991745;28;19933;-68
2021/08/05 13:43:53;;;;;;;;;;;22.60;64.80;;;;;;4990688;28;20433;-70
2021/08/05 13:46:18;;;;;;;;;;;22.40;65.50;;;;;;4991808;28;19928;-70
2021/08/05 13:48:45;;;;;;;;;;;22.40;66.40;;;;;;4989941;28;20250;-70
2021/08/05 13:51:11;;;;;;;;;;;22.50;66.90;;;;;;4995252;28;20398;-70
2021/08/05 13:53:37;;;;;;;;;;;22.80;67.80;;;;;;4994421;28;19922;-70
2021/08/05 13:56:03;;;;;;;;;;;23.10;68.00;;;;;;4994276;28;19918;-71
2021/08/05 13:58:29;;;;;;;;;;;23.30;68.00;;;;;;4995662;28;19914;-70
2021/08/05 14:00:54;;;;;;;;;;;23.60;67.90;;;;;;4995394;28;19925;-69
2021/08/05 14:03:20;;;;;;;;;;;23.70;67.50;;;;;;4995725;28;20371;-70
2021/08/05 14:05:45;;;;;;;;;;;23.90;67.50;;;;;;5010005;28;19921;-70
2021/08/05 14:08:11;;;;;;;;;;;24.20;67.20;;;;;;5014465;28;19921;-70
2021/08/05 14:10:37;;;;;;;;;;;24.30;66.90;;;;;;5013940;28;19949;-70
2021/08/05 14:13:02;;;;;;;;;;;24.40;66.70;;;;;;5015137;28;19913;-70
2021/08/05 14:15:29;;;;;;;;;;;24.50;66.50;;;;;;5013391;28;19922;-70
2021/08/05 14:17:55;;;;;;;;;;;24.50;66.30;;;;;;5013578;28;19922;-71